NKS9916 KFLL-KGYR
Flight info
| Callsign | NKS9916 |
|---|---|
| Flight time | 4h 45m |
| Altitude | 34000 |
| Route | BNICE2 DOLIE Y280 LEV J86 PEKON Q56 SNIDR/N0465F360 Q56 SAT J138 FST J2 ALIBY J50 SSO SUNSS8 |
| Aircraft | A320/M-SDE3FGHIRWY/LB1 |
Departure
| Time | 2026-05-07 02:59 |
|---|---|
| Airport | Fort Lauderdale Hollywood International Airport (KFLL) |
Arrival
| Time | 2026-05-07 07:45 |
|---|---|
| Airport | Phoenix Goodyear Airport (KGYR) |
| Time | Latitude | Longitude | Altitude | Speed | Heading |
|---|---|---|---|---|---|
| 2026-05-07 02:45 | 26.07058 | -80.14707 | 17 ft | 0 kts | 58° |
| 2026-05-07 02:52 | 26.07046 | -80.14728 | 19 ft | 4 kts | 54° |
| 2026-05-07 02:52 | 26.07029 | -80.14751 | 18 ft | 4 kts | 43° |
| 2026-05-07 02:52 | 26.07009 | -80.14766 | 16 ft | 4 kts | 359° |
| 2026-05-07 02:52 | 26.06997 | -80.14762 | 16 ft | 1 kts | 315° |
| 2026-05-07 02:53 | 26.06995 | -80.14760 | 17 ft | 0 kts | 315° |
| 2026-05-07 02:55 | 26.06997 | -80.14762 | 17 ft | 1 kts | 315° |
| 2026-05-07 02:55 | 26.07016 | -80.14782 | 16 ft | 12 kts | 318° |
| 2026-05-07 02:55 | 26.07115 | -80.14885 | 16 ft | 24 kts | 312° |
| 2026-05-07 02:55 | 26.07146 | -80.15022 | 15 ft | 13 kts | 257° |
| 2026-05-07 02:56 | 26.07219 | -80.15118 | 15 ft | 22 kts | 342° |
| 2026-05-07 02:56 | 26.07398 | -80.15127 | 16 ft | 29 kts | 1° |
| 2026-05-07 02:56 | 26.07488 | -80.15197 | 15 ft | 21 kts | 271° |
| 2026-05-07 02:56 | 26.07493 | -80.15447 | 15 ft | 41 kts | 271° |
| 2026-05-07 02:57 | 26.07495 | -80.15722 | 16 ft | 28 kts | 270° |
| 2026-05-07 02:57 | 26.07495 | -80.15967 | 16 ft | 35 kts | 270° |
| 2026-05-07 02:57 | 26.07498 | -80.16242 | 16 ft | 31 kts | 269° |
| 2026-05-07 02:57 | 26.07496 | -80.16502 | 16 ft | 37 kts | 270° |
| 2026-05-07 02:58 | 26.07533 | -80.16653 | 16 ft | 14 kts | 344° |
| 2026-05-07 02:58 | 26.07653 | -80.16651 | 17 ft | 9 kts | 12° |
| 2026-05-07 02:58 | 26.07700 | -80.16527 | 18 ft | 31 kts | 88° |
| 2026-05-07 02:58 | 26.07691 | -80.16021 | 19 ft | 102 kts | 92° |
| 2026-05-07 02:59 | 26.07687 | -80.15007 | 19 ft | 156 kts | 91° |
| 2026-05-07 02:59 | 26.07675 | -80.13735 | 511 ft | 168 kts | 88° |
| 2026-05-07 02:59 | 26.07789 | -80.12340 | 861 ft | 193 kts | 82° |
| 2026-05-07 02:59 | 26.08029 | -80.10788 | 1255 ft | 213 kts | 79° |
| 2026-05-07 03:00 | 26.08354 | -80.09218 | 2174 ft | 205 kts | 73° |
| 2026-05-07 03:00 | 26.09030 | -80.07822 | 2931 ft | 208 kts | 51° |
| 2026-05-07 03:00 | 26.10136 | -80.06770 | 3637 ft | 212 kts | 29° |
| 2026-05-07 03:00 | 26.11498 | -80.06151 | 4410 ft | 211 kts | 18° |
| 2026-05-07 03:01 | 26.12884 | -80.05600 | 5171 ft | 211 kts | 19° |
| 2026-05-07 03:01 | 26.14295 | -80.05139 | 5866 ft | 215 kts | 10° |
| 2026-05-07 03:01 | 26.15857 | -80.05014 | 6127 ft | 237 kts | 356° |
| 2026-05-07 03:01 | 26.17554 | -80.05372 | 6331 ft | 261 kts | 342° |
| 2026-05-07 03:02 | 26.19311 | -80.06071 | 6752 ft | 273 kts | 342° |
| 2026-05-07 03:02 | 26.21047 | -80.06986 | 7323 ft | 280 kts | 327° |
| 2026-05-07 03:02 | 26.22503 | -80.08459 | 7915 ft | 288 kts | 310° |
| 2026-05-07 03:02 | 26.23511 | -80.10404 | 8504 ft | 295 kts | 293° |
| 2026-05-07 03:03 | 26.24254 | -80.12517 | 9092 ft | 299 kts | 293° |
| 2026-05-07 03:03 | 26.25021 | -80.14688 | 9660 ft | 303 kts | 293° |
| 2026-05-07 03:03 | 26.25609 | -80.16968 | 10170 ft | 311 kts | 281° |
| 2026-05-07 03:03 | 26.25972 | -80.19424 | 10288 ft | 331 kts | 280° |
| 2026-05-07 03:04 | 26.26342 | -80.22023 | 10408 ft | 349 kts | 280° |
| 2026-05-07 03:04 | 26.26733 | -80.24795 | 10535 ft | 365 kts | 280° |
| 2026-05-07 03:04 | 26.27127 | -80.27589 | 10872 ft | 372 kts | 280° |
| 2026-05-07 03:04 | 26.27528 | -80.30442 | 11339 ft | 375 kts | 280° |
| 2026-05-07 03:05 | 26.27935 | -80.33320 | 11835 ft | 376 kts | 281° |
| 2026-05-07 03:05 | 26.28346 | -80.36200 | 12341 ft | 378 kts | 281° |
| 2026-05-07 03:05 | 26.28761 | -80.39101 | 12849 ft | 380 kts | 281° |
| 2026-05-07 03:05 | 26.29178 | -80.42015 | 13354 ft | 381 kts | 281° |
| 2026-05-07 03:06 | 26.29593 | -80.44938 | 13852 ft | 383 kts | 281° |
| 2026-05-07 03:06 | 26.30008 | -80.47880 | 14300 ft | 385 kts | 281° |
| 2026-05-07 03:06 | 26.30423 | -80.50828 | 14761 ft | 385 kts | 281° |
| 2026-05-07 03:06 | 26.30836 | -80.53788 | 15208 ft | 386 kts | 281° |
| 2026-05-07 03:07 | 26.31248 | -80.56748 | 15674 ft | 387 kts | 280° |
| 2026-05-07 03:07 | 26.31663 | -80.59716 | 16126 ft | 388 kts | 280° |
| 2026-05-07 03:07 | 26.32078 | -80.62690 | 16564 ft | 389 kts | 280° |
| 2026-05-07 03:07 | 26.32496 | -80.65676 | 17005 ft | 390 kts | 280° |
| 2026-05-07 03:08 | 26.32910 | -80.68626 | 17445 ft | 391 kts | 280° |
| 2026-05-07 03:08 | 26.33329 | -80.71618 | 17876 ft | 392 kts | 279° |
| 2026-05-07 03:08 | 26.33750 | -80.74633 | 18305 ft | 394 kts | 279° |
| 2026-05-07 03:08 | 26.34170 | -80.77646 | 18677 ft | 395 kts | 279° |
| 2026-05-07 03:09 | 26.34592 | -80.80687 | 19050 ft | 396 kts | 279° |
| 2026-05-07 03:09 | 26.35013 | -80.83725 | 19428 ft | 397 kts | 279° |
| 2026-05-07 03:09 | 26.35434 | -80.86764 | 19815 ft | 398 kts | 279° |
| 2026-05-07 03:09 | 26.36028 | -80.89776 | 20173 ft | 398 kts | 289° |
| 2026-05-07 03:10 | 26.37127 | -80.92606 | 20523 ft | 399 kts | 299° |
| 2026-05-07 03:10 | 26.38706 | -80.95151 | 20888 ft | 400 kts | 310° |
| 2026-05-07 03:10 | 26.40684 | -80.97355 | 21241 ft | 402 kts | 316° |
| 2026-05-07 03:10 | 26.42729 | -80.99484 | 21599 ft | 403 kts | 316° |
| 2026-05-07 03:11 | 26.44781 | -81.01628 | 21943 ft | 404 kts | 316° |
| 2026-05-07 03:11 | 26.46835 | -81.03786 | 22292 ft | 406 kts | 315° |
| 2026-05-07 03:11 | 26.48895 | -81.05951 | 22621 ft | 407 kts | 315° |
| 2026-05-07 03:11 | 26.50959 | -81.08122 | 22963 ft | 408 kts | 315° |
| 2026-05-07 03:12 | 26.53021 | -81.10294 | 23294 ft | 409 kts | 315° |
| 2026-05-07 03:12 | 26.55096 | -81.12484 | 23609 ft | 410 kts | 315° |
| 2026-05-07 03:12 | 26.57176 | -81.14683 | 23876 ft | 412 kts | 315° |
| 2026-05-07 03:12 | 26.58554 | -81.16139 | 24057 ft | 412 kts | 315° |
| 2026-05-07 03:13 | 26.60640 | -81.18344 | 24330 ft | 413 kts | 315° |
| 2026-05-07 03:13 | 26.62724 | -81.20543 | 24631 ft | 413 kts | 315° |
| 2026-05-07 03:13 | 26.65498 | -81.23470 | 24987 ft | 414 kts | 315° |
| 2026-05-07 03:13 | 26.67594 | -81.25692 | 25249 ft | 415 kts | 315° |
| 2026-05-07 03:14 | 26.69687 | -81.27922 | 25510 ft | 416 kts | 315° |
| 2026-05-07 03:14 | 26.71103 | -81.29432 | 25698 ft | 417 kts | 314° |
| 2026-05-07 03:14 | 26.75315 | -81.33920 | 26191 ft | 420 kts | 314° |
| 2026-05-07 03:15 | 26.77431 | -81.36172 | 26448 ft | 421 kts | 314° |
| 2026-05-07 03:15 | 26.79563 | -81.38442 | 26713 ft | 422 kts | 314° |
| 2026-05-07 03:15 | 26.81685 | -81.40708 | 26974 ft | 423 kts | 314° |
| 2026-05-07 03:15 | 26.83812 | -81.42981 | 27337 ft | 421 kts | 314° |
| 2026-05-07 03:16 | 26.85926 | -81.45237 | 27740 ft | 419 kts | 314° |
| 2026-05-07 03:16 | 26.88032 | -81.47482 | 28130 ft | 417 kts | 314° |
| 2026-05-07 03:16 | 26.90128 | -81.49717 | 28533 ft | 415 kts | 314° |
| 2026-05-07 03:16 | 26.92217 | -81.51949 | 28951 ft | 413 kts | 314° |
| 2026-05-07 03:17 | 26.94289 | -81.54167 | 29447 ft | 409 kts | 314° |
| 2026-05-07 03:17 | 26.96340 | -81.56362 | 29915 ft | 407 kts | 314° |
| 2026-05-07 03:17 | 26.98354 | -81.58517 | 30314 ft | 404 kts | 314° |
| 2026-05-07 03:17 | 27.00388 | -81.60694 | 30659 ft | 403 kts | 314° |
| 2026-05-07 03:18 | 27.02412 | -81.62863 | 30967 ft | 403 kts | 314° |
| 2026-05-07 03:18 | 27.04437 | -81.65037 | 31283 ft | 402 kts | 314° |
| 2026-05-07 03:18 | 27.06457 | -81.67208 | 31599 ft | 402 kts | 314° |
| 2026-05-07 03:18 | 27.08473 | -81.69375 | 31912 ft | 401 kts | 314° |
| 2026-05-07 03:19 | 27.10487 | -81.71538 | 32231 ft | 401 kts | 314° |
| 2026-05-07 03:19 | 27.12500 | -81.73702 | 32557 ft | 400 kts | 314° |
| 2026-05-07 03:19 | 27.14508 | -81.75864 | 32880 ft | 400 kts | 314° |
| 2026-05-07 03:19 | 27.16513 | -81.78024 | 33203 ft | 399 kts | 314° |
| 2026-05-07 03:20 | 27.18516 | -81.80177 | 33518 ft | 398 kts | 314° |
| 2026-05-07 03:20 | 27.20516 | -81.82326 | 33840 ft | 398 kts | 314° |
| 2026-05-07 03:20 | 27.22515 | -81.84475 | 34128 ft | 397 kts | 314° |
| 2026-05-07 03:20 | 27.24510 | -81.86621 | 34390 ft | 397 kts | 313° |
| 2026-05-07 03:21 | 27.26446 | -81.88812 | 34651 ft | 394 kts | 307° |
| 2026-05-07 03:21 | 27.28000 | -81.91330 | 34888 ft | 390 kts | 297° |
| 2026-05-07 03:21 | 27.29067 | -81.94081 | 35108 ft | 389 kts | 287° |
| 2026-05-07 03:21 | 27.29703 | -81.97034 | 35328 ft | 389 kts | 282° |
| 2026-05-07 03:22 | 27.30253 | -82.00010 | 35536 ft | 388 kts | 282° |
| 2026-05-07 03:22 | 27.30807 | -82.02979 | 35761 ft | 388 kts | 282° |
| 2026-05-07 03:22 | 27.31364 | -82.05941 | 35975 ft | 387 kts | 282° |
| 2026-05-07 03:23 | 27.32477 | -82.11860 | 36084 ft | 386 kts | 282° |
| 2026-05-07 03:23 | 27.33584 | -82.17771 | 36081 ft | 386 kts | 282° |
| 2026-05-07 03:24 | 27.34680 | -82.23679 | 36081 ft | 386 kts | 282° |
| 2026-05-07 03:24 | 27.35769 | -82.29587 | 36079 ft | 386 kts | 282° |
| 2026-05-07 03:25 | 27.36862 | -82.35507 | 36082 ft | 386 kts | 282° |
| 2026-05-07 03:25 | 27.37952 | -82.41418 | 36084 ft | 386 kts | 282° |
| 2026-05-07 03:26 | 27.39045 | -82.47336 | 36089 ft | 386 kts | 282° |
| 2026-05-07 03:26 | 27.40136 | -82.53251 | 36091 ft | 386 kts | 282° |
| 2026-05-07 03:27 | 27.41221 | -82.59167 | 36095 ft | 386 kts | 282° |
| 2026-05-07 03:27 | 27.42327 | -82.65082 | 36090 ft | 386 kts | 282° |
| 2026-05-07 03:28 | 27.43440 | -82.70995 | 36095 ft | 386 kts | 282° |
| 2026-05-07 03:28 | 27.44542 | -82.76916 | 36095 ft | 387 kts | 282° |
| 2026-05-07 03:29 | 27.45643 | -82.82838 | 36094 ft | 387 kts | 282° |
| 2026-05-07 03:29 | 27.46744 | -82.88774 | 36103 ft | 387 kts | 282° |
| 2026-05-07 03:30 | 27.47840 | -82.94718 | 36105 ft | 387 kts | 282° |
| 2026-05-07 03:30 | 27.48934 | -83.00665 | 36112 ft | 388 kts | 282° |
| 2026-05-07 03:31 | 27.50019 | -83.06579 | 36117 ft | 388 kts | 282° |
| 2026-05-07 03:31 | 27.51112 | -83.12531 | 36117 ft | 388 kts | 282° |
| 2026-05-07 03:32 | 27.52203 | -83.18484 | 36112 ft | 388 kts | 282° |
| 2026-05-07 03:32 | 27.53297 | -83.24436 | 36114 ft | 388 kts | 282° |
| 2026-05-07 03:33 | 27.54385 | -83.30397 | 36115 ft | 388 kts | 282° |
| 2026-05-07 03:33 | 27.55463 | -83.36345 | 36113 ft | 388 kts | 282° |
| 2026-05-07 03:34 | 27.56539 | -83.42311 | 36106 ft | 388 kts | 282° |
| 2026-05-07 03:34 | 27.57615 | -83.48268 | 36105 ft | 388 kts | 282° |
| 2026-05-07 03:35 | 27.58690 | -83.54234 | 36106 ft | 388 kts | 282° |
| 2026-05-07 03:35 | 27.59751 | -83.60158 | 36107 ft | 388 kts | 282° |
| 2026-05-07 03:36 | 27.60819 | -83.66140 | 36107 ft | 389 kts | 282° |
| 2026-05-07 03:36 | 27.61888 | -83.72111 | 36107 ft | 389 kts | 282° |
| 2026-05-07 03:37 | 27.62961 | -83.78094 | 36106 ft | 389 kts | 282° |
| 2026-05-07 03:37 | 27.64024 | -83.84081 | 36108 ft | 389 kts | 282° |
| 2026-05-07 03:38 | 27.65085 | -83.90074 | 36108 ft | 390 kts | 282° |
| 2026-05-07 03:38 | 27.66142 | -83.96070 | 36103 ft | 390 kts | 281° |
| 2026-05-07 03:39 | 27.67201 | -84.02066 | 36109 ft | 390 kts | 281° |
| 2026-05-07 03:39 | 27.68259 | -84.08072 | 36108 ft | 390 kts | 281° |
| 2026-05-07 03:40 | 27.69299 | -84.14038 | 36107 ft | 390 kts | 281° |
| 2026-05-07 03:40 | 27.70353 | -84.20051 | 36107 ft | 390 kts | 281° |
| 2026-05-07 03:41 | 27.71403 | -84.26056 | 36106 ft | 390 kts | 281° |
| 2026-05-07 03:41 | 27.72447 | -84.32062 | 36105 ft | 390 kts | 281° |
| 2026-05-07 03:42 | 27.73487 | -84.38079 | 36104 ft | 390 kts | 281° |
| 2026-05-07 03:42 | 27.74524 | -84.44094 | 36105 ft | 391 kts | 281° |
| 2026-05-07 03:43 | 27.75564 | -84.50113 | 36106 ft | 391 kts | 281° |
| 2026-05-07 03:43 | 27.76606 | -84.56147 | 36106 ft | 391 kts | 281° |
| 2026-05-07 03:44 | 27.77646 | -84.62183 | 36108 ft | 391 kts | 281° |
| 2026-05-07 03:44 | 27.78684 | -84.68224 | 36111 ft | 391 kts | 281° |
| 2026-05-07 03:45 | 27.79708 | -84.74223 | 36107 ft | 391 kts | 281° |
| 2026-05-07 03:45 | 27.80729 | -84.80256 | 36107 ft | 391 kts | 281° |
| 2026-05-07 03:46 | 27.81755 | -84.86287 | 36105 ft | 391 kts | 281° |
| 2026-05-07 03:46 | 27.82781 | -84.92322 | 36103 ft | 391 kts | 281° |
| 2026-05-07 03:47 | 27.83796 | -84.98356 | 36097 ft | 391 kts | 281° |
| 2026-05-07 03:47 | 27.84817 | -85.04393 | 36096 ft | 391 kts | 281° |
| 2026-05-07 03:48 | 27.85836 | -85.10424 | 36094 ft | 391 kts | 280° |
| 2026-05-07 03:48 | 27.86846 | -85.16463 | 36090 ft | 391 kts | 280° |
| 2026-05-07 03:49 | 27.87849 | -85.22462 | 36090 ft | 391 kts | 280° |
| 2026-05-07 03:49 | 27.89206 | -85.28438 | 36089 ft | 391 kts | 288° |
| 2026-05-07 03:50 | 27.90968 | -85.34222 | 36085 ft | 391 kts | 288° |
| 2026-05-07 03:50 | 27.92738 | -85.40046 | 36085 ft | 392 kts | 288° |
| 2026-05-07 03:51 | 27.94499 | -85.45881 | 36087 ft | 392 kts | 287° |
| 2026-05-07 03:51 | 27.96256 | -85.51718 | 36085 ft | 392 kts | 287° |
| 2026-05-07 03:52 | 27.98019 | -85.57566 | 36086 ft | 393 kts | 287° |
| 2026-05-07 03:52 | 27.99786 | -85.63424 | 36102 ft | 393 kts | 287° |
| 2026-05-07 03:53 | 28.01549 | -85.69287 | 36106 ft | 393 kts | 287° |
| 2026-05-07 03:53 | 28.03292 | -85.75109 | 36105 ft | 393 kts | 287° |
| 2026-05-07 03:54 | 28.05032 | -85.80957 | 36101 ft | 392 kts | 287° |
| 2026-05-07 03:54 | 28.06787 | -85.86812 | 36102 ft | 392 kts | 287° |
| 2026-05-07 03:55 | 28.08542 | -85.92671 | 36096 ft | 393 kts | 287° |
| 2026-05-07 03:55 | 28.10278 | -85.98529 | 36091 ft | 393 kts | 287° |
| 2026-05-07 03:56 | 28.12021 | -86.04395 | 36094 ft | 393 kts | 287° |
| 2026-05-07 03:56 | 28.13759 | -86.10262 | 36093 ft | 393 kts | 287° |
| 2026-05-07 03:57 | 28.15495 | -86.16134 | 36091 ft | 393 kts | 287° |
| 2026-05-07 03:57 | 28.17233 | -86.22006 | 36082 ft | 393 kts | 287° |
| 2026-05-07 03:58 | 28.18969 | -86.27887 | 36084 ft | 394 kts | 287° |
| 2026-05-07 03:58 | 28.20706 | -86.33776 | 36084 ft | 394 kts | 287° |
| 2026-05-07 03:59 | 28.22438 | -86.39668 | 36079 ft | 394 kts | 287° |
| 2026-05-07 03:59 | 28.24167 | -86.45569 | 36081 ft | 394 kts | 287° |
| 2026-05-07 04:00 | 28.25894 | -86.51476 | 36076 ft | 394 kts | 287° |
| 2026-05-07 04:00 | 28.27328 | -86.56382 | 36073 ft | 395 kts | 287° |
| 2026-05-07 04:01 | 28.29061 | -86.62295 | 36069 ft | 395 kts | 287° |
| 2026-05-07 04:01 | 28.31067 | -86.69181 | 36068 ft | 396 kts | 286° |
| 2026-05-07 04:02 | 28.32512 | -86.74150 | 36068 ft | 396 kts | 287° |
| 2026-05-07 04:02 | 28.34252 | -86.80090 | 36083 ft | 396 kts | 287° |
| 2026-05-07 04:03 | 28.35988 | -86.86016 | 36086 ft | 396 kts | 287° |
| 2026-05-07 04:03 | 28.37722 | -86.91951 | 36081 ft | 396 kts | 286° |
| 2026-05-07 04:04 | 28.39453 | -86.97887 | 36088 ft | 396 kts | 286° |
| 2026-05-07 04:04 | 28.41185 | -87.03818 | 36080 ft | 396 kts | 286° |
| 2026-05-07 04:05 | 28.42900 | -87.09722 | 36069 ft | 396 kts | 286° |
| 2026-05-07 04:05 | 28.44613 | -87.15670 | 36068 ft | 396 kts | 286° |
| 2026-05-07 04:06 | 28.46330 | -87.21610 | 36068 ft | 396 kts | 286° |
| 2026-05-07 04:06 | 28.48057 | -87.27557 | 36065 ft | 396 kts | 286° |
| 2026-05-07 04:07 | 28.49780 | -87.33508 | 36062 ft | 396 kts | 286° |
| 2026-05-07 04:07 | 28.51483 | -87.39460 | 36059 ft | 396 kts | 286° |
| 2026-05-07 04:08 | 28.53190 | -87.45430 | 36058 ft | 397 kts | 286° |
| 2026-05-07 04:08 | 28.54907 | -87.51418 | 36060 ft | 398 kts | 286° |
| 2026-05-07 04:09 | 28.56621 | -87.57403 | 36056 ft | 398 kts | 286° |
| 2026-05-07 04:09 | 28.58320 | -87.63354 | 36057 ft | 398 kts | 286° |
| 2026-05-07 04:10 | 28.60031 | -87.69355 | 36058 ft | 398 kts | 286° |
| 2026-05-07 04:10 | 28.61736 | -87.75354 | 36053 ft | 399 kts | 285° |
| 2026-05-07 04:11 | 28.63445 | -87.81371 | 36051 ft | 399 kts | 286° |
| 2026-05-07 04:11 | 28.65163 | -87.87385 | 36078 ft | 400 kts | 285° |
| 2026-05-07 04:12 | 28.66867 | -87.93407 | 36069 ft | 399 kts | 285° |
| 2026-05-07 04:12 | 28.68559 | -87.99422 | 36071 ft | 398 kts | 285° |
| 2026-05-07 04:13 | 28.70248 | -88.05430 | 36064 ft | 398 kts | 285° |
| 2026-05-07 04:13 | 28.71936 | -88.11438 | 36067 ft | 398 kts | 285° |
| 2026-05-07 04:14 | 28.73627 | -88.17437 | 36062 ft | 398 kts | 285° |
| 2026-05-07 04:14 | 28.75305 | -88.23400 | 36056 ft | 398 kts | 285° |
| 2026-05-07 04:15 | 28.76994 | -88.29442 | 36055 ft | 398 kts | 285° |
| 2026-05-07 04:15 | 28.78656 | -88.35409 | 36048 ft | 398 kts | 285° |
| 2026-05-07 04:16 | 28.80330 | -88.41421 | 36047 ft | 398 kts | 285° |
| 2026-05-07 04:16 | 28.81999 | -88.47438 | 36041 ft | 398 kts | 285° |
| 2026-05-07 04:17 | 28.83669 | -88.53457 | 36039 ft | 399 kts | 285° |
| 2026-05-07 04:17 | 28.85349 | -88.59496 | 36042 ft | 399 kts | 285° |
| 2026-05-07 04:18 | 28.87026 | -88.65548 | 36039 ft | 399 kts | 285° |
| 2026-05-07 04:18 | 28.88660 | -88.71563 | 36041 ft | 399 kts | 283° |
| 2026-05-07 04:19 | 28.90029 | -88.77694 | 36038 ft | 398 kts | 281° |
| 2026-05-07 04:19 | 28.91260 | -88.83853 | 36037 ft | 398 kts | 281° |
| 2026-05-07 04:20 | 28.92521 | -88.90017 | 36040 ft | 399 kts | 281° |
| 2026-05-07 04:20 | 28.93822 | -88.96169 | 36040 ft | 399 kts | 281° |
| 2026-05-07 04:21 | 28.95795 | -89.05408 | 36059 ft | 400 kts | 281° |
| 2026-05-07 04:21 | 28.97110 | -89.11584 | 36055 ft | 399 kts | 281° |
| 2026-05-07 04:22 | 28.98398 | -89.17709 | 36051 ft | 399 kts | 281° |
| 2026-05-07 04:22 | 28.99688 | -89.23864 | 36047 ft | 399 kts | 281° |
| 2026-05-07 04:23 | 29.00984 | -89.30033 | 36041 ft | 399 kts | 281° |
| 2026-05-07 04:23 | 29.02276 | -89.36209 | 36037 ft | 400 kts | 281° |
| 2026-05-07 04:24 | 29.03565 | -89.42395 | 36034 ft | 400 kts | 281° |
| 2026-05-07 04:24 | 29.04848 | -89.48582 | 36034 ft | 400 kts | 281° |
| 2026-05-07 04:25 | 29.06129 | -89.54768 | 36032 ft | 400 kts | 281° |
| 2026-05-07 04:25 | 29.07409 | -89.60967 | 36033 ft | 400 kts | 281° |
| 2026-05-07 04:26 | 29.08678 | -89.67120 | 36034 ft | 401 kts | 281° |
| 2026-05-07 04:26 | 29.09955 | -89.73330 | 36030 ft | 401 kts | 281° |
| 2026-05-07 04:27 | 29.11231 | -89.79532 | 36032 ft | 401 kts | 281° |
| 2026-05-07 04:27 | 29.12510 | -89.85749 | 36034 ft | 401 kts | 281° |
| 2026-05-07 04:28 | 29.13781 | -89.91969 | 36028 ft | 402 kts | 281° |
| 2026-05-07 04:28 | 29.15048 | -89.98191 | 36028 ft | 401 kts | 281° |
| 2026-05-07 04:29 | 29.16313 | -90.04419 | 36019 ft | 402 kts | 280° |
| 2026-05-07 04:29 | 29.17567 | -90.10656 | 36018 ft | 402 kts | 280° |
| 2026-05-07 04:30 | 29.18693 | -90.16926 | 36015 ft | 402 kts | 278° |
| 2026-05-07 04:30 | 29.19718 | -90.23174 | 36016 ft | 402 kts | 278° |
| 2026-05-07 04:31 | 29.20751 | -90.29466 | 36014 ft | 402 kts | 278° |
| 2026-05-07 04:31 | 29.21807 | -90.35750 | 36013 ft | 402 kts | 278° |
| 2026-05-07 04:32 | 29.22870 | -90.42039 | 36019 ft | 403 kts | 278° |
| 2026-05-07 04:32 | 29.23929 | -90.48339 | 36014 ft | 403 kts | 278° |
| 2026-05-07 04:33 | 29.24978 | -90.54638 | 36025 ft | 403 kts | 278° |
| 2026-05-07 04:33 | 29.26021 | -90.60936 | 36020 ft | 402 kts | 278° |
| 2026-05-07 04:34 | 29.27060 | -90.67222 | 36016 ft | 402 kts | 278° |
| 2026-05-07 04:34 | 29.28093 | -90.73473 | 36010 ft | 401 kts | 278° |
| 2026-05-07 04:35 | 29.29129 | -90.79753 | 36012 ft | 401 kts | 278° |
| 2026-05-07 04:35 | 29.30164 | -90.86036 | 36009 ft | 401 kts | 278° |
| 2026-05-07 04:36 | 29.31194 | -90.92327 | 36006 ft | 402 kts | 278° |
| 2026-05-07 04:36 | 29.32219 | -90.98624 | 36006 ft | 402 kts | 277° |
| 2026-05-07 04:37 | 29.33242 | -91.04918 | 36005 ft | 402 kts | 278° |
| 2026-05-07 04:37 | 29.34264 | -91.11212 | 36001 ft | 402 kts | 278° |
| 2026-05-07 04:38 | 29.35282 | -91.17511 | 36010 ft | 402 kts | 277° |
| 2026-05-07 04:38 | 29.36296 | -91.23803 | 35994 ft | 401 kts | 277° |
| 2026-05-07 04:39 | 29.37308 | -91.30092 | 35990 ft | 401 kts | 277° |
| 2026-05-07 04:39 | 29.38320 | -91.36389 | 35993 ft | 401 kts | 277° |
| 2026-05-07 04:40 | 29.39327 | -91.42681 | 35992 ft | 401 kts | 277° |
| 2026-05-07 04:40 | 29.40331 | -91.48989 | 35986 ft | 401 kts | 277° |
| 2026-05-07 04:41 | 29.41325 | -91.55243 | 35997 ft | 401 kts | 277° |
| 2026-05-07 04:41 | 29.42316 | -91.61535 | 35999 ft | 401 kts | 277° |
| 2026-05-07 04:42 | 29.43313 | -91.67832 | 35995 ft | 401 kts | 277° |
| 2026-05-07 04:42 | 29.44300 | -91.74126 | 35988 ft | 401 kts | 277° |
| 2026-05-07 04:43 | 29.45278 | -91.80418 | 35996 ft | 400 kts | 277° |
| 2026-05-07 04:43 | 29.46260 | -91.86711 | 35978 ft | 400 kts | 277° |
| 2026-05-07 04:44 | 29.47243 | -91.92995 | 35983 ft | 400 kts | 276° |
| 2026-05-07 04:44 | 29.48223 | -91.99285 | 35988 ft | 400 kts | 276° |
| 2026-05-07 04:45 | 29.49195 | -92.05565 | 35973 ft | 399 kts | 276° |
| 2026-05-07 04:45 | 29.50160 | -92.11843 | 35978 ft | 399 kts | 276° |
| 2026-05-07 04:46 | 29.51128 | -92.18126 | 35973 ft | 399 kts | 276° |
| 2026-05-07 04:46 | 29.52086 | -92.24354 | 35993 ft | 399 kts | 276° |
| 2026-05-07 04:47 | 29.53044 | -92.30638 | 35995 ft | 398 kts | 276° |
| 2026-05-07 04:47 | 29.53997 | -92.36897 | 35988 ft | 397 kts | 276° |
| 2026-05-07 04:48 | 29.54947 | -92.43117 | 35982 ft | 395 kts | 276° |
| 2026-05-07 04:48 | 29.55886 | -92.49336 | 35982 ft | 395 kts | 276° |
| 2026-05-07 04:49 | 29.56816 | -92.55542 | 35979 ft | 394 kts | 276° |
| 2026-05-07 04:49 | 29.57588 | -92.60699 | 35977 ft | 394 kts | 276° |
| 2026-05-07 04:50 | 29.58672 | -92.67905 | 35988 ft | 394 kts | 276° |
| 2026-05-07 04:50 | 29.59449 | -92.73102 | 35981 ft | 394 kts | 276° |
| 2026-05-07 04:51 | 29.60367 | -92.79315 | 35974 ft | 394 kts | 276° |
| 2026-05-07 04:51 | 29.61286 | -92.85521 | 35971 ft | 394 kts | 276° |
| 2026-05-07 04:52 | 29.62194 | -92.91692 | 35968 ft | 394 kts | 274° |
| 2026-05-07 04:52 | 29.62428 | -92.97940 | 35966 ft | 391 kts | 269° |
| 2026-05-07 04:53 | 29.62563 | -93.04195 | 35967 ft | 391 kts | 269° |
| 2026-05-07 04:53 | 29.62703 | -93.10449 | 35983 ft | 391 kts | 268° |
| 2026-05-07 04:54 | 29.62838 | -93.16690 | 35978 ft | 390 kts | 268° |
| 2026-05-07 04:54 | 29.62962 | -93.22920 | 35976 ft | 390 kts | 268° |
| 2026-05-07 04:55 | 29.63087 | -93.29146 | 35975 ft | 390 kts | 268° |
| 2026-05-07 04:55 | 29.63218 | -93.35368 | 35973 ft | 389 kts | 268° |
| 2026-05-07 04:56 | 29.63339 | -93.41552 | 35966 ft | 389 kts | 268° |
| 2026-05-07 04:56 | 29.63453 | -93.47773 | 35966 ft | 389 kts | 268° |
| 2026-05-07 04:57 | 29.63560 | -93.53993 | 35965 ft | 389 kts | 268° |
| 2026-05-07 04:57 | 29.63669 | -93.60224 | 35965 ft | 389 kts | 268° |
| 2026-05-07 04:58 | 29.63780 | -93.66448 | 35965 ft | 389 kts | 268° |
| 2026-05-07 04:58 | 29.63887 | -93.72668 | 35965 ft | 389 kts | 268° |
| 2026-05-07 04:59 | 29.63995 | -93.78891 | 35964 ft | 389 kts | 268° |
| 2026-05-07 04:59 | 29.64093 | -93.85111 | 35987 ft | 389 kts | 268° |
| 2026-05-07 05:00 | 29.64188 | -93.91317 | 35979 ft | 388 kts | 268° |
| 2026-05-07 05:00 | 29.64281 | -93.97466 | 35977 ft | 387 kts | 268° |
| 2026-05-07 05:01 | 29.64368 | -94.03645 | 35976 ft | 386 kts | 268° |
| 2026-05-07 05:01 | 29.64454 | -94.09817 | 35972 ft | 386 kts | 268° |
| 2026-05-07 05:02 | 29.64542 | -94.15994 | 35974 ft | 386 kts | 268° |
| 2026-05-07 05:02 | 29.64629 | -94.22161 | 35998 ft | 386 kts | 268° |
| 2026-05-07 05:03 | 29.64706 | -94.28312 | 35985 ft | 384 kts | 267° |
| 2026-05-07 05:03 | 29.64775 | -94.34455 | 35980 ft | 383 kts | 267° |
| 2026-05-07 05:04 | 29.64848 | -94.40585 | 35977 ft | 383 kts | 267° |
| 2026-05-07 05:04 | 29.64917 | -94.46703 | 35973 ft | 383 kts | 267° |
| 2026-05-07 05:05 | 29.64983 | -94.52824 | 35973 ft | 383 kts | 267° |
| 2026-05-07 05:05 | 29.65046 | -94.58945 | 35984 ft | 383 kts | 267° |
| 2026-05-07 05:06 | 29.65108 | -94.65018 | 35977 ft | 382 kts | 267° |
| 2026-05-07 05:06 | 29.65162 | -94.71117 | 35974 ft | 382 kts | 267° |
| 2026-05-07 05:07 | 29.65219 | -94.77217 | 35976 ft | 381 kts | 267° |
| 2026-05-07 05:07 | 29.65279 | -94.83318 | 35975 ft | 381 kts | 267° |
| 2026-05-07 05:08 | 29.65327 | -94.89412 | 35976 ft | 381 kts | 267° |
| 2026-05-07 05:08 | 29.65371 | -94.95534 | 35981 ft | 380 kts | 266° |
| 2026-05-07 05:09 | 29.65413 | -95.01574 | 35985 ft | 380 kts | 266° |
| 2026-05-07 05:09 | 29.65454 | -95.07638 | 35982 ft | 379 kts | 267° |
| 2026-05-07 05:10 | 29.65497 | -95.13703 | 35975 ft | 379 kts | 266° |
| 2026-05-07 05:10 | 29.65524 | -95.19760 | 35978 ft | 379 kts | 266° |
| 2026-05-07 05:11 | 29.65556 | -95.25840 | 35997 ft | 380 kts | 266° |
| 2026-05-07 05:11 | 29.65603 | -95.31910 | 35995 ft | 379 kts | 267° |
| 2026-05-07 05:12 | 29.65660 | -95.37971 | 36005 ft | 379 kts | 266° |
| 2026-05-07 05:12 | 29.65709 | -95.43988 | 36002 ft | 378 kts | 266° |
| 2026-05-07 05:13 | 29.65757 | -95.50036 | 35998 ft | 378 kts | 266° |
| 2026-05-07 05:13 | 29.65805 | -95.56075 | 35993 ft | 378 kts | 266° |
| 2026-05-07 05:14 | 29.65855 | -95.62108 | 35992 ft | 378 kts | 266° |
| 2026-05-07 05:14 | 29.65906 | -95.68142 | 35996 ft | 378 kts | 266° |
| 2026-05-07 05:15 | 29.65960 | -95.74178 | 36009 ft | 377 kts | 266° |
| 2026-05-07 05:15 | 29.66006 | -95.80200 | 36000 ft | 376 kts | 266° |
| 2026-05-07 05:16 | 29.66039 | -95.86215 | 36031 ft | 376 kts | 266° |
| 2026-05-07 05:16 | 29.66066 | -95.92227 | 36029 ft | 375 kts | 266° |
| 2026-05-07 05:17 | 29.66097 | -95.98186 | 36019 ft | 375 kts | 266° |
| 2026-05-07 05:17 | 29.66134 | -96.04188 | 36008 ft | 375 kts | 266° |
| 2026-05-07 05:18 | 29.66157 | -96.10184 | 35999 ft | 375 kts | 266° |
| 2026-05-07 05:18 | 29.66169 | -96.16167 | 36014 ft | 374 kts | 266° |
| 2026-05-07 05:19 | 29.66182 | -96.22152 | 36028 ft | 374 kts | 266° |
| 2026-05-07 05:19 | 29.66197 | -96.28133 | 36033 ft | 374 kts | 266° |
| 2026-05-07 05:20 | 29.66209 | -96.34110 | 36032 ft | 374 kts | 266° |
| 2026-05-07 05:20 | 29.66221 | -96.40093 | 36030 ft | 374 kts | 266° |
| 2026-05-07 05:21 | 29.66239 | -96.49065 | 36011 ft | 374 kts | 266° |
| 2026-05-07 05:22 | 29.66233 | -96.55040 | 35999 ft | 373 kts | 266° |
| 2026-05-07 05:22 | 29.66216 | -96.60992 | 35938 ft | 373 kts | 266° |
| 2026-05-07 05:23 | 29.66195 | -96.66902 | 36064 ft | 368 kts | 266° |
| 2026-05-07 05:23 | 29.66185 | -96.69812 | 36614 ft | 361 kts | 266° |
| 2026-05-07 05:23 | 29.66174 | -96.72691 | 37036 ft | 357 kts | 266° |
| 2026-05-07 05:23 | 29.66161 | -96.75533 | 37366 ft | 354 kts | 266° |
| 2026-05-07 05:24 | 29.66148 | -96.78359 | 37655 ft | 352 kts | 266° |
| 2026-05-07 05:24 | 29.66137 | -96.81171 | 37888 ft | 352 kts | 266° |
| 2026-05-07 05:24 | 29.66126 | -96.83978 | 37946 ft | 351 kts | 266° |
| 2026-05-07 05:25 | 29.66099 | -96.89580 | 37961 ft | 349 kts | 265° |
| 2026-05-07 05:25 | 29.66071 | -96.95120 | 37961 ft | 349 kts | 265° |
| 2026-05-07 05:26 | 29.66043 | -97.00713 | 37978 ft | 349 kts | 265° |
| 2026-05-07 05:26 | 29.66012 | -97.06299 | 37978 ft | 349 kts | 265° |
| 2026-05-07 05:27 | 29.65981 | -97.11888 | 37980 ft | 350 kts | 265° |
| 2026-05-07 05:27 | 29.65944 | -97.17483 | 37997 ft | 350 kts | 265° |
| 2026-05-07 05:28 | 29.65906 | -97.23081 | 38000 ft | 350 kts | 265° |
| 2026-05-07 05:28 | 29.65865 | -97.28691 | 38001 ft | 350 kts | 265° |
| 2026-05-07 05:29 | 29.65817 | -97.34286 | 38009 ft | 350 kts | 265° |
| 2026-05-07 05:29 | 29.65771 | -97.39894 | 38009 ft | 350 kts | 265° |
| 2026-05-07 05:30 | 29.65728 | -97.45462 | 38009 ft | 350 kts | 265° |
| 2026-05-07 05:30 | 29.65672 | -97.51065 | 38010 ft | 350 kts | 265° |
| 2026-05-07 05:31 | 29.65620 | -97.56662 | 38009 ft | 351 kts | 265° |
| 2026-05-07 05:31 | 29.65572 | -97.62277 | 38022 ft | 351 kts | 265° |
| 2026-05-07 05:32 | 29.65515 | -97.67883 | 38018 ft | 350 kts | 265° |
| 2026-05-07 05:32 | 29.65446 | -97.73482 | 38013 ft | 350 kts | 265° |
| 2026-05-07 05:33 | 29.65381 | -97.79083 | 38010 ft | 350 kts | 265° |
| 2026-05-07 05:33 | 29.65315 | -97.84680 | 38010 ft | 350 kts | 265° |
| 2026-05-07 05:34 | 29.65239 | -97.90294 | 38011 ft | 350 kts | 265° |
| 2026-05-07 05:34 | 29.65160 | -97.95892 | 38046 ft | 350 kts | 265° |
| 2026-05-07 05:35 | 29.65082 | -98.01453 | 38054 ft | 350 kts | 265° |
| 2026-05-07 05:35 | 29.65003 | -98.07052 | 38051 ft | 350 kts | 265° |
| 2026-05-07 05:36 | 29.64924 | -98.12647 | 38051 ft | 350 kts | 265° |
| 2026-05-07 05:36 | 29.64841 | -98.18238 | 38041 ft | 350 kts | 265° |
| 2026-05-07 05:37 | 29.64763 | -98.23831 | 38020 ft | 350 kts | 265° |
| 2026-05-07 05:37 | 29.64684 | -98.29420 | 38012 ft | 350 kts | 265° |
| 2026-05-07 05:38 | 29.64593 | -98.35017 | 37992 ft | 350 kts | 264° |
| 2026-05-07 05:38 | 29.64494 | -98.40621 | 37981 ft | 351 kts | 264° |
| 2026-05-07 05:39 | 29.64704 | -98.46244 | 38016 ft | 359 kts | 276° |
| 2026-05-07 05:39 | 29.66142 | -98.50806 | 38013 ft | 369 kts | 284° |
| 2026-05-07 05:40 | 29.68505 | -98.57119 | 38007 ft | 370 kts | 284° |
| 2026-05-07 05:40 | 29.70190 | -98.61642 | 38005 ft | 370 kts | 284° |
| 2026-05-07 05:41 | 29.72215 | -98.67093 | 38009 ft | 371 kts | 284° |
| 2026-05-07 05:41 | 29.74235 | -98.72537 | 38004 ft | 371 kts | 284° |
| 2026-05-07 05:42 | 29.76262 | -98.78015 | 37995 ft | 372 kts | 284° |
| 2026-05-07 05:42 | 29.78296 | -98.83501 | 38016 ft | 373 kts | 284° |
| 2026-05-07 05:43 | 29.80326 | -98.88999 | 38034 ft | 373 kts | 284° |
| 2026-05-07 05:43 | 29.82353 | -98.94506 | 38073 ft | 374 kts | 283° |
| 2026-05-07 05:44 | 29.84382 | -99.00009 | 38084 ft | 373 kts | 283° |
| 2026-05-07 05:44 | 29.86409 | -99.05505 | 38089 ft | 372 kts | 283° |
| 2026-05-07 05:45 | 29.88424 | -99.10997 | 38091 ft | 372 kts | 283° |
| 2026-05-07 05:45 | 29.90438 | -99.16502 | 38084 ft | 373 kts | 283° |
| 2026-05-07 05:46 | 29.92434 | -99.22016 | 38080 ft | 372 kts | 282° |
| 2026-05-07 05:46 | 29.94152 | -99.27606 | 38070 ft | 369 kts | 279° |
| 2026-05-07 05:47 | 29.95710 | -99.33201 | 38061 ft | 369 kts | 279° |
| 2026-05-07 05:47 | 29.97292 | -99.38835 | 38036 ft | 369 kts | 279° |
| 2026-05-07 05:48 | 29.98912 | -99.44464 | 38041 ft | 370 kts | 279° |
| 2026-05-07 05:48 | 30.00543 | -99.50102 | 38040 ft | 370 kts | 279° |
| 2026-05-07 05:49 | 30.02172 | -99.55741 | 38034 ft | 371 kts | 279° |
| 2026-05-07 05:49 | 30.03805 | -99.61392 | 38033 ft | 371 kts | 279° |
| 2026-05-07 05:50 | 30.05428 | -99.67040 | 38071 ft | 371 kts | 279° |
| 2026-05-07 05:50 | 30.07039 | -99.72685 | 38043 ft | 370 kts | 279° |
| 2026-05-07 05:51 | 30.08657 | -99.78333 | 38041 ft | 370 kts | 279° |
| 2026-05-07 05:51 | 30.10263 | -99.83967 | 38026 ft | 370 kts | 278° |
| 2026-05-07 05:52 | 30.11858 | -99.89588 | 38012 ft | 371 kts | 278° |
| 2026-05-07 05:52 | 30.13470 | -99.95246 | 38036 ft | 371 kts | 278° |
| 2026-05-07 05:53 | 30.15081 | -100.00917 | 38017 ft | 372 kts | 278° |
| 2026-05-07 05:53 | 30.16692 | -100.06602 | 38024 ft | 372 kts | 278° |
| 2026-05-07 05:54 | 30.18300 | -100.12300 | 38023 ft | 373 kts | 278° |
| 2026-05-07 05:54 | 30.19907 | -100.18006 | 38025 ft | 373 kts | 278° |
| 2026-05-07 05:55 | 30.21517 | -100.23713 | 38028 ft | 373 kts | 278° |
| 2026-05-07 05:55 | 30.23132 | -100.29423 | 38028 ft | 373 kts | 278° |
| 2026-05-07 05:56 | 30.24726 | -100.35087 | 38022 ft | 373 kts | 278° |
| 2026-05-07 05:56 | 30.26323 | -100.40788 | 38016 ft | 373 kts | 278° |
| 2026-05-07 05:57 | 30.27914 | -100.46489 | 38010 ft | 372 kts | 278° |
| 2026-05-07 05:57 | 30.29502 | -100.52193 | 38032 ft | 372 kts | 278° |
| 2026-05-07 05:58 | 30.31094 | -100.57898 | 38074 ft | 372 kts | 278° |
| 2026-05-07 05:58 | 30.32686 | -100.63595 | 38070 ft | 372 kts | 278° |
| 2026-05-07 05:59 | 30.34267 | -100.69286 | 38073 ft | 371 kts | 278° |
| 2026-05-07 05:59 | 30.35839 | -100.74979 | 38068 ft | 371 kts | 278° |
| 2026-05-07 06:00 | 30.37412 | -100.80667 | 38064 ft | 371 kts | 278° |
| 2026-05-07 06:00 | 30.38987 | -100.86357 | 38053 ft | 371 kts | 278° |
| 2026-05-07 06:01 | 30.40548 | -100.92025 | 38037 ft | 371 kts | 278° |
| 2026-05-07 06:01 | 30.42113 | -100.97718 | 38018 ft | 371 kts | 278° |
| 2026-05-07 06:02 | 30.43674 | -101.03425 | 38007 ft | 371 kts | 278° |
| 2026-05-07 06:02 | 30.45241 | -101.09145 | 38029 ft | 372 kts | 278° |
| 2026-05-07 06:03 | 30.46806 | -101.14853 | 38045 ft | 372 kts | 278° |
| 2026-05-07 06:03 | 30.48376 | -101.20572 | 38089 ft | 371 kts | 278° |
| 2026-05-07 06:04 | 30.49925 | -101.26271 | 38025 ft | 370 kts | 277° |
| 2026-05-07 06:04 | 30.51452 | -101.31913 | 38026 ft | 369 kts | 277° |
| 2026-05-07 06:05 | 30.52991 | -101.37572 | 38013 ft | 367 kts | 277° |
| 2026-05-07 06:05 | 30.54524 | -101.43219 | 38013 ft | 367 kts | 277° |
| 2026-05-07 06:06 | 30.56042 | -101.48870 | 37997 ft | 367 kts | 277° |
| 2026-05-07 06:06 | 30.57555 | -101.54511 | 38001 ft | 366 kts | 277° |
| 2026-05-07 06:07 | 30.59077 | -101.60157 | 38005 ft | 367 kts | 277° |
| 2026-05-07 06:07 | 30.60606 | -101.65808 | 38000 ft | 367 kts | 277° |
| 2026-05-07 06:08 | 30.62135 | -101.71464 | 38007 ft | 367 kts | 277° |
| 2026-05-07 06:08 | 30.63654 | -101.77122 | 37988 ft | 367 kts | 277° |
| 2026-05-07 06:09 | 30.65166 | -101.82786 | 37993 ft | 367 kts | 277° |
| 2026-05-07 06:09 | 30.66680 | -101.88448 | 37996 ft | 367 kts | 277° |
| 2026-05-07 06:10 | 30.68179 | -101.94088 | 37981 ft | 367 kts | 277° |
| 2026-05-07 06:10 | 30.69684 | -101.99755 | 37986 ft | 365 kts | 276° |
| 2026-05-07 06:11 | 30.71172 | -102.05357 | 37979 ft | 363 kts | 276° |
| 2026-05-07 06:11 | 30.72654 | -102.10981 | 37974 ft | 364 kts | 276° |
| 2026-05-07 06:12 | 30.74143 | -102.16606 | 37980 ft | 364 kts | 276° |
| 2026-05-07 06:12 | 30.75631 | -102.22227 | 37973 ft | 364 kts | 276° |
| 2026-05-07 06:13 | 30.77113 | -102.27857 | 37979 ft | 364 kts | 276° |
| 2026-05-07 06:13 | 30.78586 | -102.33497 | 37974 ft | 364 kts | 276° |
| 2026-05-07 06:14 | 30.80064 | -102.39126 | 37975 ft | 364 kts | 276° |
| 2026-05-07 06:14 | 30.81541 | -102.44754 | 37980 ft | 364 kts | 276° |
| 2026-05-07 06:15 | 30.83016 | -102.50387 | 37974 ft | 364 kts | 276° |
| 2026-05-07 06:15 | 30.84473 | -102.55983 | 37994 ft | 364 kts | 276° |
| 2026-05-07 06:16 | 30.85931 | -102.61615 | 38017 ft | 363 kts | 276° |
| 2026-05-07 06:16 | 30.87393 | -102.67242 | 38035 ft | 363 kts | 276° |
| 2026-05-07 06:17 | 30.88852 | -102.72878 | 38059 ft | 363 kts | 276° |
| 2026-05-07 06:17 | 30.90303 | -102.78477 | 38053 ft | 359 kts | 276° |
| 2026-05-07 06:18 | 30.91745 | -102.84039 | 38061 ft | 359 kts | 276° |
| 2026-05-07 06:18 | 30.93177 | -102.89616 | 38062 ft | 360 kts | 276° |
| 2026-05-07 06:18 | 30.93897 | -102.92422 | 37923 ft | 360 kts | 275° |
| 2026-05-07 06:19 | 30.94610 | -102.95212 | 37922 ft | 360 kts | 275° |
| 2026-05-07 06:19 | 30.96069 | -103.00810 | 37930 ft | 362 kts | 276° |
| 2026-05-07 06:20 | 30.97620 | -103.06400 | 37935 ft | 363 kts | 277° |
| 2026-05-07 06:20 | 30.99177 | -103.11952 | 37945 ft | 363 kts | 277° |
| 2026-05-07 06:21 | 31.00725 | -103.17544 | 37942 ft | 363 kts | 277° |
| 2026-05-07 06:21 | 31.02261 | -103.23153 | 37942 ft | 363 kts | 277° |
| 2026-05-07 06:22 | 31.03795 | -103.28758 | 37951 ft | 363 kts | 277° |
| 2026-05-07 06:22 | 31.06098 | -103.37167 | 37962 ft | 363 kts | 277° |
| 2026-05-07 06:23 | 31.07627 | -103.42771 | 37976 ft | 363 kts | 276° |
| 2026-05-07 06:23 | 31.09151 | -103.48379 | 38021 ft | 362 kts | 276° |
| 2026-05-07 06:24 | 31.10660 | -103.53929 | 37973 ft | 357 kts | 276° |
| 2026-05-07 06:24 | 31.12155 | -103.59461 | 37973 ft | 358 kts | 276° |
| 2026-05-07 06:25 | 31.13652 | -103.65012 | 37978 ft | 359 kts | 276° |
| 2026-05-07 06:25 | 31.15156 | -103.70576 | 37980 ft | 359 kts | 276° |
| 2026-05-07 06:26 | 31.16653 | -103.76106 | 37974 ft | 360 kts | 276° |
| 2026-05-07 06:26 | 31.18152 | -103.81668 | 37980 ft | 360 kts | 276° |
| 2026-05-07 06:27 | 31.19649 | -103.87242 | 37972 ft | 360 kts | 276° |
| 2026-05-07 06:27 | 31.21146 | -103.92818 | 37962 ft | 360 kts | 276° |
| 2026-05-07 06:28 | 31.22639 | -103.98388 | 37977 ft | 360 kts | 276° |
| 2026-05-07 06:28 | 31.24125 | -104.03968 | 37982 ft | 359 kts | 276° |
| 2026-05-07 06:29 | 31.25604 | -104.09549 | 37997 ft | 359 kts | 276° |
| 2026-05-07 06:29 | 31.27093 | -104.15134 | 37995 ft | 360 kts | 276° |
| 2026-05-07 06:30 | 31.28576 | -104.20715 | 37993 ft | 359 kts | 276° |
| 2026-05-07 06:30 | 31.29798 | -104.25315 | 37984 ft | 355 kts | 276° |
| 2026-05-07 06:31 | 31.31257 | -104.30844 | 37977 ft | 357 kts | 276° |
| 2026-05-07 06:31 | 31.32723 | -104.36404 | 37983 ft | 358 kts | 276° |
| 2026-05-07 06:32 | 31.34187 | -104.41965 | 37983 ft | 358 kts | 276° |
| 2026-05-07 06:32 | 31.35648 | -104.47523 | 37988 ft | 358 kts | 276° |
| 2026-05-07 06:33 | 31.37102 | -104.53056 | 37996 ft | 358 kts | 276° |
| 2026-05-07 06:33 | 31.38563 | -104.58621 | 38001 ft | 358 kts | 276° |
| 2026-05-07 06:34 | 31.40018 | -104.64196 | 38007 ft | 358 kts | 276° |
| 2026-05-07 06:34 | 31.41471 | -104.69770 | 38009 ft | 358 kts | 276° |
| 2026-05-07 06:35 | 31.42917 | -104.75337 | 38009 ft | 357 kts | 276° |
| 2026-05-07 06:35 | 31.44364 | -104.80903 | 38003 ft | 357 kts | 276° |
| 2026-05-07 06:36 | 31.45813 | -104.86476 | 38010 ft | 357 kts | 276° |
| 2026-05-07 06:36 | 31.47254 | -104.92054 | 38024 ft | 358 kts | 276° |
| 2026-05-07 06:37 | 31.48691 | -104.97628 | 38025 ft | 358 kts | 276° |
| 2026-05-07 06:37 | 31.50126 | -105.03181 | 38023 ft | 358 kts | 276° |
| 2026-05-07 06:38 | 31.51565 | -105.08772 | 38022 ft | 358 kts | 276° |
| 2026-05-07 06:38 | 31.53002 | -105.14367 | 38020 ft | 359 kts | 276° |
| 2026-05-07 06:39 | 31.54440 | -105.19961 | 38016 ft | 359 kts | 276° |
| 2026-05-07 06:39 | 31.55877 | -105.25562 | 38019 ft | 359 kts | 276° |
| 2026-05-07 06:40 | 31.57302 | -105.31160 | 38029 ft | 359 kts | 275° |
| 2026-05-07 06:40 | 31.58725 | -105.36788 | 38022 ft | 359 kts | 276° |
| 2026-05-07 06:41 | 31.60152 | -105.42414 | 38017 ft | 360 kts | 276° |
| 2026-05-07 06:41 | 31.61590 | -105.48048 | 38015 ft | 360 kts | 276° |
| 2026-05-07 06:42 | 31.63024 | -105.53699 | 38016 ft | 361 kts | 276° |
| 2026-05-07 06:42 | 31.64448 | -105.59342 | 38017 ft | 361 kts | 276° |
| 2026-05-07 06:43 | 31.65873 | -105.64997 | 38030 ft | 361 kts | 276° |
| 2026-05-07 06:43 | 31.67288 | -105.70632 | 38017 ft | 362 kts | 276° |
| 2026-05-07 06:44 | 31.68710 | -105.76297 | 38006 ft | 362 kts | 276° |
| 2026-05-07 06:44 | 31.70132 | -105.81984 | 38000 ft | 363 kts | 276° |
| 2026-05-07 06:45 | 31.71557 | -105.87680 | 38001 ft | 364 kts | 276° |
| 2026-05-07 06:45 | 31.72986 | -105.93393 | 37990 ft | 364 kts | 276° |
| 2026-05-07 06:46 | 31.74412 | -105.99108 | 37999 ft | 364 kts | 276° |
| 2026-05-07 06:46 | 31.75834 | -106.04836 | 38018 ft | 366 kts | 276° |
| 2026-05-07 06:47 | 31.77261 | -106.10579 | 38038 ft | 367 kts | 276° |
| 2026-05-07 06:47 | 31.78685 | -106.16339 | 38062 ft | 367 kts | 276° |
| 2026-05-07 06:48 | 31.80107 | -106.22110 | 38090 ft | 368 kts | 275° |
| 2026-05-07 06:48 | 31.81485 | -106.27890 | 38114 ft | 363 kts | 271° |
| 2026-05-07 06:49 | 31.81998 | -106.33659 | 38114 ft | 356 kts | 266° |
| 2026-05-07 06:49 | 31.82443 | -106.39476 | 38128 ft | 358 kts | 266° |
| 2026-05-07 06:50 | 31.82888 | -106.45314 | 38125 ft | 359 kts | 267° |
| 2026-05-07 06:50 | 31.83328 | -106.51167 | 38105 ft | 360 kts | 266° |
| 2026-05-07 06:51 | 31.83767 | -106.57029 | 38133 ft | 361 kts | 266° |
| 2026-05-07 06:51 | 31.84203 | -106.62912 | 38147 ft | 361 kts | 266° |
| 2026-05-07 06:52 | 31.84636 | -106.68795 | 38150 ft | 361 kts | 266° |
| 2026-05-07 06:52 | 31.85061 | -106.74678 | 38159 ft | 362 kts | 266° |
| 2026-05-07 06:53 | 31.85491 | -106.80584 | 38149 ft | 363 kts | 266° |
| 2026-05-07 06:53 | 31.85917 | -106.86463 | 38118 ft | 363 kts | 266° |
| 2026-05-07 06:54 | 31.86131 | -106.89464 | 37970 ft | 364 kts | 266° |
| 2026-05-07 06:54 | 31.86339 | -106.92387 | 37973 ft | 364 kts | 266° |
| 2026-05-07 06:54 | 31.86759 | -106.98320 | 37976 ft | 364 kts | 266° |
| 2026-05-07 06:55 | 31.87178 | -107.04262 | 37989 ft | 364 kts | 266° |
| 2026-05-07 06:55 | 31.87592 | -107.10198 | 37994 ft | 365 kts | 266° |
| 2026-05-07 06:56 | 31.88008 | -107.16161 | 37986 ft | 366 kts | 266° |
| 2026-05-07 06:56 | 31.88421 | -107.22129 | 37982 ft | 366 kts | 266° |
| 2026-05-07 06:57 | 31.88833 | -107.28114 | 37987 ft | 367 kts | 266° |
| 2026-05-07 06:57 | 31.89244 | -107.34100 | 37995 ft | 367 kts | 266° |
| 2026-05-07 06:58 | 31.89647 | -107.40056 | 38011 ft | 367 kts | 266° |
| 2026-05-07 06:58 | 31.90048 | -107.46057 | 38000 ft | 368 kts | 266° |
| 2026-05-07 06:59 | 31.90448 | -107.52071 | 38002 ft | 369 kts | 266° |
| 2026-05-07 06:59 | 31.90846 | -107.58098 | 37999 ft | 369 kts | 266° |
| 2026-05-07 07:00 | 31.91240 | -107.64130 | 38019 ft | 370 kts | 266° |
| 2026-05-07 07:00 | 31.91632 | -107.70167 | 38010 ft | 371 kts | 266° |
| 2026-05-07 07:01 | 31.92030 | -107.76245 | 38021 ft | 372 kts | 267° |
| 2026-05-07 07:01 | 31.92464 | -107.79284 | 38010 ft | 383 kts | 276° |
| 2026-05-07 07:01 | 31.93190 | -107.82315 | 37991 ft | 385 kts | 276° |
| 2026-05-07 07:02 | 31.94656 | -107.88389 | 37990 ft | 386 kts | 276° |
| 2026-05-07 07:02 | 31.96125 | -107.94485 | 37992 ft | 387 kts | 276° |
| 2026-05-07 07:03 | 31.97597 | -108.00598 | 37993 ft | 388 kts | 276° |
| 2026-05-07 07:03 | 31.99065 | -108.06719 | 38001 ft | 389 kts | 276° |
| 2026-05-07 07:04 | 32.00524 | -108.12861 | 37999 ft | 389 kts | 276° |
| 2026-05-07 07:04 | 32.01978 | -108.19004 | 38002 ft | 389 kts | 276° |
| 2026-05-07 07:05 | 32.03429 | -108.25150 | 38008 ft | 389 kts | 276° |
| 2026-05-07 07:05 | 32.04885 | -108.31290 | 38010 ft | 389 kts | 276° |
| 2026-05-07 07:06 | 32.06332 | -108.37393 | 38016 ft | 389 kts | 276° |
| 2026-05-07 07:06 | 32.07777 | -108.43547 | 38035 ft | 389 kts | 276° |
| 2026-05-07 07:07 | 32.09226 | -108.49717 | 38042 ft | 391 kts | 276° |
| 2026-05-07 07:07 | 32.10677 | -108.55912 | 38060 ft | 393 kts | 276° |
| 2026-05-07 07:08 | 32.12126 | -108.62122 | 38074 ft | 393 kts | 276° |
| 2026-05-07 07:08 | 32.13583 | -108.68362 | 38100 ft | 394 kts | 276° |
| 2026-05-07 07:09 | 32.15040 | -108.74589 | 38102 ft | 394 kts | 276° |
| 2026-05-07 07:09 | 32.16488 | -108.80818 | 38006 ft | 394 kts | 276° |
| 2026-05-07 07:10 | 32.17952 | -108.87067 | 37993 ft | 395 kts | 276° |
| 2026-05-07 07:10 | 32.19390 | -108.93303 | 37990 ft | 396 kts | 276° |
| 2026-05-07 07:11 | 32.20827 | -108.99582 | 37999 ft | 397 kts | 276° |
| 2026-05-07 07:11 | 32.22265 | -109.05876 | 38002 ft | 398 kts | 276° |
| 2026-05-07 07:12 | 32.23717 | -109.12188 | 38017 ft | 398 kts | 277° |
| 2026-05-07 07:12 | 32.25163 | -109.18515 | 37998 ft | 400 kts | 277° |
| 2026-05-07 07:13 | 32.26612 | -109.24880 | 37993 ft | 401 kts | 277° |
| 2026-05-07 07:13 | 32.28085 | -109.31250 | 37772 ft | 404 kts | 277° |
| 2026-05-07 07:14 | 32.28866 | -109.34434 | 37386 ft | 403 kts | 278° |
| 2026-05-07 07:14 | 32.29664 | -109.37620 | 36805 ft | 403 kts | 278° |
| 2026-05-07 07:14 | 32.30460 | -109.40801 | 36207 ft | 404 kts | 278° |
| 2026-05-07 07:14 | 32.31248 | -109.43982 | 35613 ft | 404 kts | 278° |
| 2026-05-07 07:15 | 32.32033 | -109.47177 | 35017 ft | 405 kts | 278° |
| 2026-05-07 07:15 | 32.32818 | -109.50391 | 34346 ft | 408 kts | 278° |
| 2026-05-07 07:15 | 32.33603 | -109.53629 | 33662 ft | 410 kts | 278° |
| 2026-05-07 07:15 | 32.34386 | -109.56864 | 32904 ft | 412 kts | 278° |
| 2026-05-07 07:16 | 32.35166 | -109.60091 | 32234 ft | 412 kts | 278° |
| 2026-05-07 07:16 | 32.35955 | -109.63357 | 32014 ft | 415 kts | 278° |
| 2026-05-07 07:16 | 32.37547 | -109.69949 | 31990 ft | 419 kts | 280° |
| 2026-05-07 07:17 | 32.39148 | -109.76617 | 31991 ft | 423 kts | 280° |
| 2026-05-07 07:17 | 32.40763 | -109.83345 | 32000 ft | 426 kts | 280° |
| 2026-05-07 07:18 | 32.42388 | -109.90103 | 32000 ft | 428 kts | 280° |
| 2026-05-07 07:18 | 32.44011 | -109.96887 | 32002 ft | 428 kts | 280° |
| 2026-05-07 07:19 | 32.45355 | -110.02524 | 32008 ft | 428 kts | 280° |
| 2026-05-07 07:19 | 32.47225 | -110.10397 | 31698 ft | 427 kts | 280° |
| 2026-05-07 07:20 | 32.47768 | -110.12686 | 31536 ft | 426 kts | 280° |
| 2026-05-07 07:20 | 32.48567 | -110.16054 | 31304 ft | 426 kts | 281° |
| 2026-05-07 07:20 | 32.49368 | -110.19426 | 31064 ft | 425 kts | 281° |
| 2026-05-07 07:20 | 32.50168 | -110.22796 | 30820 ft | 424 kts | 281° |
| 2026-05-07 07:21 | 32.50966 | -110.26158 | 30571 ft | 423 kts | 281° |
| 2026-05-07 07:21 | 32.51761 | -110.29514 | 30336 ft | 422 kts | 281° |
| 2026-05-07 07:21 | 32.52546 | -110.32849 | 30112 ft | 421 kts | 282° |
| 2026-05-07 07:21 | 32.53333 | -110.36202 | 29957 ft | 422 kts | 282° |
| 2026-05-07 07:22 | 32.54905 | -110.42950 | 29995 ft | 426 kts | 282° |
| 2026-05-07 07:22 | 32.56488 | -110.49709 | 29999 ft | 428 kts | 282° |
| 2026-05-07 07:23 | 32.58091 | -110.56548 | 29996 ft | 431 kts | 282° |
| 2026-05-07 07:23 | 32.59694 | -110.63393 | 29995 ft | 431 kts | 282° |
| 2026-05-07 07:24 | 32.61279 | -110.70197 | 29997 ft | 431 kts | 282° |
| 2026-05-07 07:24 | 32.62858 | -110.77058 | 29990 ft | 431 kts | 282° |
| 2026-05-07 07:25 | 32.65236 | -110.87390 | 29989 ft | 435 kts | 283° |
| 2026-05-07 07:26 | 32.66833 | -110.94332 | 29993 ft | 436 kts | 283° |
| 2026-05-07 07:26 | 32.68410 | -111.01340 | 29863 ft | 445 kts | 283° |
| 2026-05-07 07:26 | 32.69153 | -111.04909 | 29588 ft | 444 kts | 282° |
| 2026-05-07 07:27 | 32.69864 | -111.08476 | 29316 ft | 443 kts | 282° |
| 2026-05-07 07:27 | 32.70557 | -111.12031 | 29053 ft | 442 kts | 282° |
| 2026-05-07 07:27 | 32.71244 | -111.15574 | 28792 ft | 441 kts | 283° |
| 2026-05-07 07:27 | 32.71940 | -111.19121 | 28521 ft | 441 kts | 283° |
| 2026-05-07 07:28 | 32.72639 | -111.22658 | 28259 ft | 440 kts | 283° |
| 2026-05-07 07:28 | 32.73343 | -111.26195 | 27995 ft | 439 kts | 283° |
| 2026-05-07 07:28 | 32.74048 | -111.29733 | 27728 ft | 438 kts | 283° |
| 2026-05-07 07:28 | 32.74748 | -111.33229 | 27260 ft | 434 kts | 283° |
| 2026-05-07 07:29 | 32.75445 | -111.36714 | 26662 ft | 432 kts | 283° |
| 2026-05-07 07:29 | 32.76133 | -111.40182 | 26076 ft | 430 kts | 283° |
| 2026-05-07 07:29 | 32.76816 | -111.43632 | 25494 ft | 428 kts | 284° |
| 2026-05-07 07:29 | 32.77497 | -111.47065 | 24936 ft | 426 kts | 284° |
| 2026-05-07 07:30 | 32.78174 | -111.50487 | 24378 ft | 425 kts | 284° |
| 2026-05-07 07:30 | 32.78844 | -111.53894 | 23842 ft | 423 kts | 284° |
| 2026-05-07 07:30 | 32.79506 | -111.57261 | 22914 ft | 417 kts | 284° |
| 2026-05-07 07:30 | 32.80174 | -111.60647 | 21613 ft | 421 kts | 284° |
| 2026-05-07 07:31 | 32.80824 | -111.63940 | 21211 ft | 407 kts | 284° |
| 2026-05-07 07:31 | 32.81470 | -111.67222 | 20967 ft | 408 kts | 284° |
| 2026-05-07 07:31 | 32.82114 | -111.70508 | 20711 ft | 407 kts | 284° |
| 2026-05-07 07:31 | 32.82753 | -111.73771 | 20465 ft | 405 kts | 284° |
| 2026-05-07 07:32 | 32.83389 | -111.77026 | 20170 ft | 402 kts | 284° |
| 2026-05-07 07:32 | 32.84016 | -111.80248 | 19658 ft | 400 kts | 284° |
| 2026-05-07 07:32 | 32.84640 | -111.83465 | 19121 ft | 399 kts | 284° |
| 2026-05-07 07:32 | 32.85264 | -111.86683 | 18575 ft | 398 kts | 284° |
| 2026-05-07 07:33 | 32.85885 | -111.89892 | 17975 ft | 398 kts | 283° |
| 2026-05-07 07:33 | 32.86503 | -111.93091 | 17412 ft | 396 kts | 284° |
| 2026-05-07 07:33 | 32.87118 | -111.96274 | 16854 ft | 393 kts | 284° |
| 2026-05-07 07:33 | 32.87729 | -111.99433 | 16300 ft | 391 kts | 284° |
| 2026-05-07 07:34 | 32.88338 | -112.02582 | 15742 ft | 390 kts | 284° |
| 2026-05-07 07:34 | 32.88944 | -112.05716 | 15190 ft | 388 kts | 284° |
| 2026-05-07 07:34 | 32.89548 | -112.08840 | 14636 ft | 387 kts | 284° |
| 2026-05-07 07:34 | 32.90148 | -112.11958 | 14083 ft | 384 kts | 284° |
| 2026-05-07 07:35 | 32.90877 | -112.14931 | 13511 ft | 368 kts | 295° |
| 2026-05-07 07:35 | 32.92081 | -112.17556 | 12986 ft | 359 kts | 308° |
| 2026-05-07 07:35 | 32.93685 | -112.19801 | 12467 ft | 356 kts | 316° |
| 2026-05-07 07:35 | 32.95381 | -112.21943 | 11950 ft | 355 kts | 316° |
| 2026-05-07 07:36 | 32.97070 | -112.24083 | 11436 ft | 354 kts | 316° |
| 2026-05-07 07:36 | 32.98750 | -112.26217 | 10928 ft | 353 kts | 316° |
| 2026-05-07 07:36 | 33.00428 | -112.28354 | 10428 ft | 352 kts | 315° |
| 2026-05-07 07:36 | 33.02068 | -112.30447 | 10282 ft | 340 kts | 315° |
| 2026-05-07 07:37 | 33.03661 | -112.32483 | 10158 ft | 329 kts | 316° |
| 2026-05-07 07:37 | 33.05194 | -112.34440 | 10047 ft | 318 kts | 316° |
| 2026-05-07 07:37 | 33.06681 | -112.36335 | 9893 ft | 309 kts | 316° |
| 2026-05-07 07:37 | 33.08121 | -112.38171 | 9602 ft | 306 kts | 316° |
| 2026-05-07 07:38 | 33.09571 | -112.40019 | 9255 ft | 304 kts | 316° |
| 2026-05-07 07:38 | 33.11008 | -112.41851 | 8571 ft | 303 kts | 316° |
| 2026-05-07 07:38 | 33.12478 | -112.43657 | 8096 ft | 304 kts | 321° |
| 2026-05-07 07:38 | 33.14200 | -112.45054 | 7968 ft | 287 kts | 333° |
| 2026-05-07 07:39 | 33.15840 | -112.46183 | 7866 ft | 263 kts | 332° |
| 2026-05-07 07:39 | 33.17405 | -112.47282 | 7349 ft | 260 kts | 332° |
| 2026-05-07 07:39 | 33.18944 | -112.48366 | 6843 ft | 255 kts | 331° |
| 2026-05-07 07:39 | 33.20466 | -112.49437 | 6275 ft | 252 kts | 331° |
| 2026-05-07 07:40 | 33.21953 | -112.50482 | 5873 ft | 243 kts | 331° |
| 2026-05-07 07:40 | 33.23377 | -112.51480 | 5531 ft | 232 kts | 331° |
| 2026-05-07 07:40 | 33.24793 | -112.52289 | 5208 ft | 221 kts | 346° |
| 2026-05-07 07:40 | 33.26279 | -112.52411 | 4909 ft | 211 kts | 7° |
| 2026-05-07 07:41 | 33.27639 | -112.51861 | 4600 ft | 205 kts | 28° |
| 2026-05-07 07:41 | 33.28715 | -112.50794 | 4325 ft | 199 kts | 44° |
| 2026-05-07 07:41 | 33.29613 | -112.49572 | 4101 ft | 193 kts | 43° |
| 2026-05-07 07:41 | 33.30575 | -112.48469 | 3889 ft | 191 kts | 39° |
| 2026-05-07 07:42 | 33.31581 | -112.47439 | 3628 ft | 189 kts | 37° |
| 2026-05-07 07:42 | 33.32562 | -112.46472 | 3420 ft | 179 kts | 36° |
| 2026-05-07 07:42 | 33.33541 | -112.45586 | 3233 ft | 175 kts | 30° |
| 2026-05-07 07:42 | 33.34510 | -112.44699 | 3030 ft | 175 kts | 33° |
| 2026-05-07 07:43 | 33.35511 | -112.43868 | 2698 ft | 176 kts | 33° |
| 2026-05-07 07:43 | 33.36473 | -112.42973 | 2391 ft | 174 kts | 34° |
| 2026-05-07 07:43 | 33.37416 | -112.42079 | 2182 ft | 171 kts | 34° |
| 2026-05-07 07:43 | 33.38343 | -112.41235 | 1917 ft | 164 kts | 37° |
| 2026-05-07 07:44 | 33.39237 | -112.40437 | 1572 ft | 157 kts | 39° |
| 2026-05-07 07:44 | 33.40087 | -112.39636 | 1367 ft | 157 kts | 38° |
| 2026-05-07 07:44 | 33.40942 | -112.38842 | 1160 ft | 154 kts | 40° |
| 2026-05-07 07:44 | 33.41775 | -112.38065 | 977 ft | 145 kts | 39° |
| 2026-05-07 07:45 | 33.42393 | -112.37473 | 960 ft | 71 kts | 38° |
| 2026-05-07 07:45 | 33.42566 | -112.37311 | 957 ft | 16 kts | 38° |
| 2026-05-07 07:45 | 33.42683 | -112.37203 | 957 ft | 24 kts | 36° |
| 2026-05-07 07:45 | 33.42826 | -112.37076 | 955 ft | 27 kts | 37° |
| 2026-05-07 07:46 | 33.43009 | -112.36904 | 954 ft | 45 kts | 38° |
| 2026-05-07 07:46 | 33.43201 | -112.36708 | 961 ft | 20 kts | 41° |
| 2026-05-07 07:46 | 33.43151 | -112.36599 | 957 ft | 16 kts | 186° |
| 2026-05-07 07:46 | 33.43046 | -112.36699 | 957 ft | 25 kts | 215° |
| 2026-05-07 07:47 | 33.42911 | -112.36831 | 953 ft | 27 kts | 218° |
| 2026-05-07 07:47 | 33.42786 | -112.36887 | 955 ft | 15 kts | 159° |
| 2026-05-07 07:47 | 33.42733 | -112.36892 | 956 ft | 0 kts | 226° |